Time;durP1;ratioP1;P1;durP2;ratioP2;P2;SDS_P1;SDS_P2;PMS_P1;PMS_P2;Temp;Humidity;BMP_temperature;BMP_pressure;BME280_temperature;BME280_humidity;BME280_pressure;Samples;Min_cycle;Max_cycle;Signal;HPM_P1;HPM_P2
2023/11/26 00:00:58;;;;;;;1.83;1.00;;;;;;;0.27;100.00;98558.19;5077890;28;20048;-76
2023/11/26 00:03:23;;;;;;;1.92;1.17;;;;;;;0.21;100.00;98540.97;5067106;28;20337;-76
2023/11/26 00:05:48;;;;;;;11.50;1.17;;;;;;;0.26;100.00;98553.81;5068824;28;20075;-77
2023/11/26 00:08:14;;;;;;;5.47;1.35;;;;;;;0.32;100.00;98568.38;5097410;28;20047;-76
2023/11/26 00:10:39;;;;;;;2.30;0.90;;;;;;;0.27;100.00;98552.03;5059476;28;20032;-75
2023/11/26 00:13:04;;;;;;;4.38;1.60;;;;;;;0.31;100.00;98550.72;5074750;28;20027;-76
2023/11/26 00:15:30;;;;;;;5.22;1.95;;;;;;;0.38;100.00;98571.28;5073518;28;20029;-76
2023/11/26 00:17:56;;;;;;;3.40;1.55;;;;;;;0.44;100.00;98570.72;5069112;28;20221;-76
2023/11/26 00:20:21;;;;;;;3.67;1.95;;;;;;;0.44;100.00;98580.53;5083581;28;20065;-75
2023/11/26 00:22:47;;;;;;;6.82;1.80;;;;;;;0.47;100.00;98574.06;5072382;28;20225;-76
2023/11/26 00:25:12;;;;;;;4.28;1.90;;;;;;;0.66;100.00;98590.00;5086439;28;20031;-76
2023/11/26 00:27:38;;;;;;;3.35;2.00;;;;;;;0.64;100.00;98566.16;5080417;28;20024;-76
2023/11/26 00:30:04;;;;;;;6.90;1.95;;;;;;;0.78;100.00;98579.97;5062635;28;20287;-76
2023/11/26 00:32:30;;;;;;;5.20;2.30;;;;;;;0.96;100.00;98609.34;5046701;28;20032;-76
2023/11/26 00:34:55;;;;;;;7.07;2.58;;;;;;;1.08;100.00;98603.69;5050388;28;20021;-76
2023/11/26 00:37:20;;;;;;;4.63;2.03;;;;;;;1.09;100.00;98594.69;5055984;28;20071;-75
2023/11/26 00:39:47;;;;;;;5.13;2.50;;;;;;;1.30;100.00;98617.59;5077804;28;20024;-75
2023/11/26 00:42:12;;;;;;;6.88;2.22;;;;;;;1.38;100.00;98609.69;5080505;28;20024;-75
2023/11/26 00:44:38;;;;;;;8.07;2.75;;;;;;;1.38;100.00;98617.66;5069253;28;20021;-76
2023/11/26 00:47:03;;;;;;;6.60;2.67;;;;;;;1.31;100.00;98606.78;5084257;28;20328;-77
2023/11/26 00:49:28;;;;;;;6.30;3.10;;;;;;;1.32;100.00;98610.28;5046682;28;20028;-76
2023/11/26 00:51:54;;;;;;;4.68;2.40;;;;;;;1.36;100.00;98616.97;5101980;28;20047;-77
2023/11/26 00:54:19;;;;;;;7.50;2.70;;;;;;;1.24;100.00;98615.53;5104187;28;20217;-77
2023/11/26 00:56:44;;;;;;;6.28;2.20;;;;;;;1.17;100.00;98617.09;5086879;28;20037;-77
2023/11/26 00:59:10;;;;;;;7.38;2.55;;;;;;;1.13;100.00;98599.72;5064639;28;20739;-76
2023/11/26 01:01:35;;;;;;;5.30;2.20;;;;;;;0.96;100.00;98614.66;5065015;28;20048;-76
2023/11/26 01:04:01;;;;;;;3.90;2.10;;;;;;;0.88;100.00;98640.22;5066201;28;20035;-77
2023/11/26 01:06:26;;;;;;;6.43;2.00;;;;;;;0.63;100.00;98624.91;5065092;28;20078;-77
2023/11/26 01:08:51;;;;;;;5.45;2.50;;;;;;;0.44;100.00;98641.72;5065379;28;20276;-76
2023/11/26 01:11:17;;;;;;;6.90;2.67;;;;;;;0.34;100.00;98651.56;5056558;28;20028;-76
2023/11/26 01:13:42;;;;;;;5.25;2.75;;;;;;;0.17;100.00;98638.00;5065602;28;20029;-76
2023/11/26 01:16:09;;;;;;;6.95;2.67;;;;;;;0.13;100.00;98654.38;5056929;28;20020;-77
2023/11/26 01:18:36;;;;;;;5.40;2.58;;;;;;;0.02;100.00;98649.19;5063465;28;20016;-76
2023/11/26 01:21:02;;;;;;;7.07;2.80;;;;;;;0.04;100.00;98653.41;5064243;28;20039;-76
2023/11/26 01:23:28;;;;;;;6.13;2.80;;;;;;;0.10;100.00;98665.28;5083348;28;20024;-77
2023/11/26 01:25:53;;;;;;;4.70;2.70;;;;;;;-0.11;100.00;98631.69;5050729;28;20023;-76
2023/11/26 01:28:19;;;;;;;8.45;2.75;;;;;;;0.00;100.00;98662.66;5061836;28;20016;-76
2023/11/26 01:30:44;;;;;;;6.90;3.33;;;;;;;-0.09;100.00;98647.53;5046780;28;20345;-76
2023/11/26 01:33:09;;;;;;;6.15;2.60;;;;;;;-0.12;100.00;98667.25;5079843;28;20354;-76
2023/11/26 01:35:35;;;;;;;4.38;2.42;;;;;;;-0.20;100.00;98664.47;5064497;28;20063;-77
2023/11/26 01:38:00;;;;;;;8.57;3.30;;;;;;;-0.20;100.00;98667.13;5060757;28;20040;-76
2023/11/26 01:40:26;;;;;;;7.72;3.17;;;;;;;-0.19;100.00;98667.94;5053722;28;20025;-75
2023/11/26 01:42:51;;;;;;;7.32;3.38;;;;;;;-0.25;100.00;98672.84;5063185;28;20051;-75
2023/11/26 01:45:17;;;;;;;10.82;3.13;;;;;;;-0.33;100.00;98672.69;5053893;28;20012;-75
2023/11/26 01:47:43;;;;;;;7.95;3.10;;;;;;;-0.37;100.00;98676.59;5083556;28;20035;-76
2023/11/26 01:50:15;;;;;;;10.95;3.30;;;;;;;-0.38;100.00;98680.22;5075025;28;20088;-76
2023/11/26 01:52:40;;;;;;;10.30;3.38;;;;;;;-0.38;100.00;98680.22;5045601;28;20336;-75
2023/11/26 01:55:06;;;;;;;14.23;3.78;;;;;;;-0.46;100.00;98680.91;5061324;28;20020;-76
2023/11/26 01:57:32;;;;;;;11.73;3.78;;;;;;;-0.57;100.00;98678.38;5077826;28;20091;-76
2023/11/26 01:59:57;;;;;;;14.35;3.95;;;;;;;-0.57;100.00;98683.69;5063416;28;20039;-76
2023/11/26 02:02:23;;;;;;;10.95;4.95;;;;;;;-0.69;100.00;98663.50;5074328;28;20273;-76
2023/11/26 02:04:48;;;;;;;15.05;4.53;;;;;;;-0.70;100.00;98683.94;5056719;28;20020;-75
2023/11/26 02:07:13;;;;;;;13.60;5.45;;;;;;;-0.83;100.00;98662.09;5082932;28;20205;-76
2023/11/26 02:09:39;;;;;;;10.57;5.53;;;;;;;-0.63;100.00;98692.19;5069257;28;20019;-76
2023/11/26 02:12:09;;;;;;;12.75;5.47;;;;;;;-0.76;100.00;98668.53;5082965;28;20020;-76
2023/11/26 02:14:35;;;;;;;18.35;7.63;;;;;;;-0.63;100.00;98668.28;5084387;22;20361;-76
2023/11/26 02:17:00;;;;;;;13.93;7.93;;;;;;;-0.37;100.00;98689.03;5078066;28;20332;-77
2023/11/26 02:19:32;;;;;;;13.75;7.50;;;;;;;-0.19;100.00;98698.03;5069396;28;20095;-77
2023/11/26 02:21:58;;;;;;;17.35;6.50;;;;;;;-0.02;100.00;98688.53;5066722;28;20023;-77
2023/11/26 02:24:36;;;;;;;21.50;7.13;;;;;;;0.12;100.00;98693.44;5066859;28;20021;-76
2023/11/26 02:27:01;;;;;;;16.10;6.78;;;;;;;0.19;100.00;98696.41;5067171;28;20205;-76
2023/11/26 02:29:26;;;;;;;18.17;5.82;;;;;;;0.23;100.00;98700.44;5031699;28;20096;-76
2023/11/26 02:31:52;;;;;;;19.77;6.60;;;;;;;0.25;100.00;98689.66;5046899;28;20036;-76
2023/11/26 02:34:17;;;;;;;16.48;6.07;;;;;;;0.35;100.00;98706.47;5046717;28;20029;-76
2023/11/26 02:36:43;;;;;;;16.00;6.03;;;;;;;0.36;100.00;98708.13;5028944;28;20036;-76
2023/11/26 02:39:09;;;;;;;20.38;6.57;;;;;;;0.22;100.00;98686.31;5047622;28;20036;-77
2023/11/26 02:41:35;;;;;;;19.58;7.47;;;;;;;0.30;100.00;98698.91;5028642;28;20029;-77
2023/11/26 02:44:00;;;;;;;16.20;5.55;;;;;;;0.29;100.00;98699.91;5046448;28;20131;-77
2023/11/26 02:46:27;;;;;;;15.02;6.43;;;;;;;0.27;100.00;98704.50;5046339;28;20025;-76
2023/11/26 02:48:52;;;;;;;17.98;5.80;;;;;;;0.12;100.00;98711.22;5046716;28;20029;-76
2023/11/26 02:51:18;;;;;;;15.65;5.63;;;;;;;0.06;100.00;98699.31;5028691;28;20399;-77
2023/11/26 02:53:44;;;;;;;19.33;6.18;;;;;;;0.03;100.00;98707.59;5028605;28;20144;-77
2023/11/26 02:56:11;;;;;;;16.95;6.57;;;;;;;0.04;100.00;98714.56;5028257;28;20017;-77
2023/11/26 02:58:37;;;;;;;20.20;6.68;;;;;;;0.05;100.00;98710.94;5056397;28;20025;-77
2023/11/26 03:01:04;;;;;;;24.38;7.13;;;;;;;0.14;100.00;98720.75;5058879;28;20274;-77
2023/11/26 03:03:29;;;;;;;20.48;8.05;;;;;;;0.20;100.00;98720.19;5059811;28;20025;-77
2023/11/26 03:05:54;;;;;;;24.63;9.95;;;;;;;0.28;100.00;98721.31;5046364;28;20067;-77
2023/11/26 03:08:28;;;;;;;33.50;9.32;;;;;;;0.32;100.00;98728.03;5056337;28;20045;-77
2023/11/26 03:13:38;;;;;;;22.52;8.45;;;;;;;0.31;100.00;98724.53;5045587;28;20021;-77
2023/11/26 03:16:07;;;;;;;20.92;7.70;;;;;;;0.35;100.00;98717.94;5041075;28;20254;-76
2023/11/26 03:18:32;;;;;;;36.50;9.60;;;;;;;0.38;100.00;98716.84;5026307;28;20018;-76
2023/11/26 03:20:58;;;;;;;27.20;9.43;;;;;;;0.43;100.00;98719.91;5017492;28;20055;-77
2023/11/26 03:23:24;;;;;;;33.17;10.05;;;;;;;0.46;100.00;98721.44;5047391;28;20037;-77
2023/11/26 03:25:53;;;;;;;26.92;10.27;;;;;;;0.52;100.00;98720.88;5025580;28;20028;-77
2023/11/26 03:28:19;;;;;;;25.08;10.13;;;;;;;0.54;100.00;98729.56;5041075;28;20025;-76
2023/11/26 03:30:46;;;;;;;25.75;8.68;;;;;;;0.67;100.00;98734.59;5045460;28;20226;-77
2023/11/26 03:33:15;;;;;;;26.23;9.30;;;;;;;0.71;100.00;98728.84;5028261;28;20315;-76
2023/11/26 03:35:40;;;;;;;;;;;;;;;0.78;100.00;98729.09;5040005;28;20024;-76
2023/11/26 03:38:06;;;;;;;25.95;8.48;;;;;;;0.77;100.00;98724.78;5065065;28;19951;-77
2023/11/26 03:40:31;;;;;;;26.67;9.95;;;;;;;0.74;100.00;98725.91;5029732;28;20017;-76
2023/11/26 03:42:56;;;;;;;29.17;10.05;;;;;;;0.72;100.00;98724.38;5034015;28;20093;-76
2023/11/26 03:45:21;;;;;;;33.47;10.65;;;;;;;0.70;100.00;98731.66;5042608;28;20025;-77
2023/11/26 03:47:47;;;;;;;22.52;9.63;;;;;;;0.71;100.00;98730.66;5033351;28;20230;-77
2023/11/26 03:50:12;;;;;;;27.05;9.05;;;;;;;0.62;100.00;98724.38;5047505;28;20028;-78
2023/11/26 03:52:38;;;;;;;23.92;9.52;;;;;;;0.56;100.00;98725.78;5050201;28;20021;-78
2023/11/26 03:55:06;;;;;;;26.08;9.90;;;;;;;0.60;100.00;98736.97;5045485;28;20032;-77
2023/11/26 03:57:31;;;;;;;24.67;10.07;;;;;;;0.58;100.00;98734.47;5067605;28;20017;-77
2023/11/26 03:59:57;;;;;;;25.88;9.20;;;;;;;0.54;100.00;98730.41;5036372;28;20029;-77
2023/11/26 04:02:23;;;;;;;25.92;8.82;;;;;;;0.56;100.00;98725.78;5056991;28;20017;-77
2023/11/26 04:04:51;;;;;;;26.17;8.73;;;;;;;0.55;100.00;98723.25;5043668;28;20125;-78
2023/11/26 04:07:16;;;;;;;25.27;9.43;;;;;;;0.57;100.00;98738.09;5048560;28;20337;-78
2023/11/26 04:09:41;;;;;;;21.10;8.35;;;;;;;0.50;100.00;98731.69;5032706;28;20025;-78
2023/11/26 04:12:07;;;;;;;29.88;9.43;;;;;;;0.46;100.00;98724.94;5031206;28;20017;-77
2023/11/26 04:14:34;;;;;;;23.45;8.48;;;;;;;0.54;100.00;98734.88;5036777;28;20025;-79
2023/11/26 04:17:00;;;;;;;19.58;8.02;;;;;;;0.57;100.00;98748.75;5045427;28;20025;-79
2023/11/26 04:19:25;;;;;;;22.75;7.78;;;;;;;0.54;100.00;98741.03;5053547;28;20051;-79
2023/11/26 04:21:50;;;;;;;17.08;7.80;;;;;;;0.64;100.00;98743.72;5079489;28;20024;-79
2023/11/26 04:24:16;;;;;;;19.80;8.13;;;;;;;0.68;100.00;98750.41;5080018;28;20017;-78
2023/11/26 04:26:41;;;;;;;24.83;8.18;;;;;;;0.58;100.00;98734.47;5061968;28;20013;-80
2023/11/26 04:29:07;;;;;;;22.17;8.48;;;;;;;0.63;100.00;98748.19;5079382;28;20013;-79
2023/11/26 04:31:33;;;;;;;28.50;9.52;;;;;;;0.54;100.00;98748.19;5077737;28;20048;-79
2023/11/26 04:34:01;;;;;;;24.27;9.02;;;;;;;0.54;100.00;98754.34;5061700;28;20013;-79
2023/11/26 04:36:27;;;;;;;26.50;9.15;;;;;;;0.46;100.00;98756.88;5066730;28;20016;-79
2023/11/26 04:38:53;;;;;;;22.33;8.88;;;;;;;0.52;100.00;98758.97;5071821;28;20032;-79
2023/11/26 04:41:20;;;;;;;25.15;8.13;;;;;;;0.53;100.00;98766.00;5074659;28;20314;-78
2023/11/26 04:43:45;;;;;;;27.67;9.43;;;;;;;0.56;100.00;98768.38;5068590;28;20028;-78
2023/11/26 04:46:13;;;;;;;26.67;8.55;;;;;;;0.48;100.00;98770.06;5061048;28;20075;-79
2023/11/26 04:48:39;;;;;;;23.92;7.90;;;;;;;0.42;100.00;98766.16;5051579;28;20025;-79
2023/11/26 04:51:06;;;;;;;19.85;7.85;;;;;;;0.46;100.00;98775.50;5062080;28;20028;-78
2023/11/26 04:53:32;;;;;;;24.27;8.77;;;;;;;0.49;100.00;98769.06;5083425;28;20031;-78
2023/11/26 04:55:58;;;;;;;21.42;8.75;;;;;;;0.59;100.00;98778.72;5064765;28;20032;-78
2023/11/26 04:58:23;;;;;;;21.50;8.70;;;;;;;0.69;100.00;98780.56;5049652;28;20033;-77
2023/11/26 05:00:49;;;;;;;23.65;7.80;;;;;;;0.73;100.00;98787.28;5047366;28;20029;-78
2023/11/26 05:03:14;;;;;;;21.52;8.70;;;;;;;0.78;100.00;98775.22;5055303;28;20032;-77
2023/11/26 05:05:40;;;;;;;20.13;8.45;;;;;;;0.72;100.00;98780.28;5072370;28;20092;-77
2023/11/26 05:08:06;;;;;;;24.67;8.77;;;;;;;0.72;100.00;98782.94;5047130;28;20321;-77
2023/11/26 05:10:31;;;;;;;21.48;8.50;;;;;;;0.63;100.00;98772.16;5046159;28;20033;-77
2023/11/26 05:12:57;;;;;;;20.85;8.40;;;;;;;0.69;100.00;98788.56;5056924;28;20027;-77
2023/11/26 05:15:22;;;;;;;21.80;8.50;;;;;;;0.67;100.00;98794.00;5067833;28;20075;-77
2023/11/26 05:17:48;;;;;;;26.58;9.57;;;;;;;0.69;100.00;98789.38;5049805;28;20028;-78
2023/11/26 05:20:13;;;;;;;18.70;7.65;;;;;;;0.65;100.00;98794.16;5073754;28;20041;-77
2023/11/26 05:22:41;;;;;;;18.38;8.27;;;;;;;0.71;100.00;98802.53;5089619;28;20020;-78
2023/11/26 05:25:07;;;;;;;20.77;8.38;;;;;;;0.72;100.00;98796.25;5054927;28;20024;-78
2023/11/26 05:27:33;;;;;;;16.83;7.57;;;;;;;0.73;100.00;98805.91;5054802;28;20021;-78
2023/11/26 05:29:58;;;;;;;16.90;6.80;;;;;;;0.67;100.00;98798.50;5056874;28;20318;-79
2023/11/26 05:32:23;;;;;;;19.58;7.32;;;;;;;0.71;100.00;98815.84;5076752;28;20074;-78
2023/11/26 05:34:49;;;;;;;21.55;6.75;;;;;;;0.83;100.00;98820.06;5076552;28;20025;-78
2023/11/26 05:37:14;;;;;;;19.23;6.57;;;;;;;0.79;100.00;98802.72;5070072;28;20028;-78
2023/11/26 05:39:40;;;;;;;14.80;6.53;;;;;;;0.79;100.00;98810.69;5078138;28;20149;-79
2023/11/26 05:42:06;;;;;;;12.18;6.07;;;;;;;0.81;100.00;98803.38;5086305;28;20025;-78
2023/11/26 05:44:31;;;;;;;15.30;5.78;;;;;;;0.85;100.00;98805.63;5082265;28;20032;-79
2023/11/26 05:46:56;;;;;;;14.85;6.03;;;;;;;0.89;100.00;98811.50;5058809;28;20039;-78
2023/11/26 05:49:22;;;;;;;14.57;6.68;;;;;;;0.93;100.00;98818.25;5056644;28;20020;-77
2023/11/26 05:51:47;;;;;;;14.88;6.88;;;;;;;1.04;100.00;98820.75;5059535;28;20056;-78
2023/11/26 05:54:12;;;;;;;24.80;8.18;;;;;;;0.97;100.00;98811.66;5045983;28;20029;-78
2023/11/26 05:56:42;;;;;;;21.15;7.80;;;;;;;1.05;100.00;98821.59;5064057;28;20021;-77
2023/11/26 05:59:08;;;;;;;19.77;9.40;;;;;;;1.01;100.00;98814.88;5046844;28;20100;-77
2023/11/26 06:01:33;;;;;;;17.77;8.45;;;;;;;1.06;100.00;98813.44;5057989;28;20021;-77
2023/11/26 06:03:58;;;;;;;17.05;8.65;;;;;;;1.03;100.00;98808.41;5053294;28;20032;-78
2023/11/26 06:06:23;;;;;;;16.67;6.97;;;;;;;0.93;100.00;98804.09;5075633;28;20040;-78
2023/11/26 06:08:49;;;;;;;19.85;7.60;;;;;;;1.01;100.00;98814.88;5063542;28;20206;-77
2023/11/26 06:11:14;;;;;;;16.15;6.97;;;;;;;1.04;100.00;98831.41;5063982;28;20070;-77
2023/11/26 06:13:39;;;;;;;16.25;7.32;;;;;;;1.03;100.00;98827.06;5060899;28;20071;-77
2023/11/26 06:16:05;;;;;;;16.80;6.43;;;;;;;1.03;100.00;98835.06;5061561;28;20036;-77
2023/11/26 06:18:30;;;;;;;16.83;6.20;;;;;;;0.95;100.00;98810.94;5045436;28;20086;-78
2023/11/26 06:20:56;;;;;;;14.00;6.20;;;;;;;0.98;100.00;98815.16;5045859;28;20100;-76
2023/11/26 06:23:21;;;;;;;12.95;5.93;;;;;;;0.98;100.00;98820.50;5065226;28;20029;-79
2023/11/26 06:25:46;;;;;;;17.73;5.97;;;;;;;0.99;100.00;98823.00;5072794;28;20032;-78
2023/11/26 06:28:13;;;;;;;11.80;5.30;;;;;;;0.98;100.00;98829.31;5077049;28;20132;-77
2023/11/26 06:30:38;;;;;;;8.25;4.25;;;;;;;1.09;100.00;98833.63;5065702;28;20252;-77
2023/11/26 06:33:04;;;;;;;16.88;5.38;;;;;;;1.01;100.00;98825.53;5062389;28;20139;-81
2023/11/26 06:35:29;;;;;;;16.48;6.68;;;;;;;1.01;100.00;98830.84;5056226;28;20143;-76
2023/11/26 06:37:54;;;;;;;26.88;11.43;;;;;;;1.10;100.00;98845.97;5060696;28;20025;-77
2023/11/26 06:40:21;;;;;;;24.40;9.80;;;;;;;1.13;100.00;98840.38;5064612;28;20031;-77
2023/11/26 06:42:46;;;;;;;18.65;8.52;;;;;;;1.29;100.00;98877.09;5062234;28;20020;-77
2023/11/26 06:45:11;;;;;;;14.02;6.53;;;;;;;1.28;100.00;98854.09;5062182;28;20083;-77
2023/11/26 06:47:38;;;;;;;10.50;5.43;;;;;;;1.33;100.00;98870.50;5060956;28;20237;-77
2023/11/26 06:50:04;;;;;;;9.95;4.63;;;;;;;1.09;100.00;98854.97;5062058;28;20032;-75
2023/11/26 06:52:30;;;;;;;10.60;4.22;;;;;;;1.06;100.00;98850.75;5044249;28;20119;-74
2023/11/26 06:54:55;;;;;;;7.78;3.38;;;;;;;0.99;100.00;98857.63;5044839;28;20024;-75
2023/11/26 06:57:21;;;;;;;6.13;2.20;;;;;;;1.00;100.00;98848.66;5061520;28;20017;-74
2023/11/26 06:59:46;;;;;;;7.43;3.17;;;;;;;0.96;100.00;98855.25;5063570;28;20245;-75
2023/11/26 07:02:14;;;;;;;7.85;2.85;;;;;;;0.93;100.00;98863.53;5050027;28;20027;-76
2023/11/26 07:04:40;;;;;;;9.10;3.73;;;;;;;0.93;100.00;98876.00;5062989;28;20027;-74
2023/11/26 07:07:06;;;;;;;7.03;3.58;;;;;;;0.94;100.00;98861.69;5048534;28;20251;-76
2023/11/26 07:09:32;;;;;;;6.03;2.55;;;;;;;1.07;100.00;98873.78;5066447;28;20045;-75
2023/11/26 07:11:57;;;;;;;7.38;3.13;;;;;;;1.14;100.00;98879.34;5048756;28;20024;-75
2023/11/26 07:14:22;;;;;;;7.80;3.50;;;;;;;1.21;100.00;98879.66;5048307;28;20025;-77
2023/11/26 07:16:52;;;;;;;6.57;3.10;;;;;;;1.21;100.00;98874.31;5049276;28;22313;-79
2023/11/26 07:19:17;;;;;;;4.53;2.60;;;;;;;1.38;100.00;98897.56;5062870;28;20025;-76
2023/11/26 07:21:43;;;;;;;8.07;3.53;;;;;;;1.45;100.00;98900.50;5065565;28;20294;-77
2023/11/26 07:24:08;;;;;;;7.32;3.80;;;;;;;1.53;100.00;98893.47;5073301;28;20025;-78
2023/11/26 07:26:33;;;;;;;8.70;4.15;;;;;;;1.53;100.00;98895.28;5046316;28;20024;-77
2023/11/26 07:28:59;;;;;;;13.65;4.78;;;;;;;1.61;100.00;98897.25;5049556;28;20260;-76
2023/11/26 07:31:24;;;;;;;11.68;4.78;;;;;;;1.62;100.00;98896.25;5050274;28;20028;-78
2023/11/26 07:33:50;;;;;;;8.98;4.70;;;;;;;1.53;100.00;98881.97;5051349;28;20057;-78
2023/11/26 07:36:22;;;;;;;8.93;5.13;;;;;;;1.64;100.00;98902.28;5066869;28;20104;-75
2023/11/26 07:38:47;;;;;;;11.95;5.10;;;;;;;1.66;100.00;98897.66;5047138;28;20056;-74
2023/11/26 07:41:13;;;;;;;9.77;4.60;;;;;;;1.72;100.00;98910.41;5063930;28;20043;-75
2023/11/26 07:43:42;;;;;;;8.43;3.70;;;;;;;1.71;100.00;98906.91;5065237;28;20264;-74
2023/11/26 07:46:08;;;;;;;;;;;;;;;1.79;100.00;98916.00;5065621;28;20074;-75
2023/11/26 07:48:34;;;;;;;10.50;4.18;;;;;;;1.73;100.00;98901.44;5047016;28;19916;-75
2023/11/26 07:51:03;;;;;;;9.05;4.65;;;;;;;1.78;100.00;98900.97;5060381;28;20080;-74
2023/11/26 07:53:28;;;;;;;11.95;5.32;;;;;;;1.81;100.00;98911.34;5061731;28;20221;-75
2023/11/26 07:55:56;;;;;;;9.98;5.47;;;;;;;1.84;100.00;98903.91;5068784;28;20017;-74
2023/11/26 07:58:25;;;;;;;12.82;5.95;;;;;;;1.80;100.00;98910.50;5065393;28;20048;-78
2023/11/26 08:00:51;;;;;;;16.40;5.63;;;;;;;1.87;100.00;98916.97;5073317;28;20029;-78
2023/11/26 08:03:17;;;;;;;14.35;5.97;;;;;;;1.84;100.00;98919.94;5049611;28;20333;-76
2023/11/26 08:05:43;;;;;;;12.30;5.68;;;;;;;1.78;100.00;98909.81;5074057;28;20025;-76
2023/11/26 08:08:08;;;;;;;13.60;5.63;;;;;;;1.93;100.00;98927.03;5046920;28;20217;-76
2023/11/26 08:10:34;;;;;;;13.98;5.70;;;;;;;2.00;100.00;98929.97;5065091;28;20061;-75
2023/11/26 08:12:59;;;;;;;11.13;5.47;;;;;;;1.95;100.00;98927.75;5049794;28;20020;-77
2023/11/26 08:15:27;;;;;;;13.07;5.53;;;;;;;1.99;100.00;98922.94;5065239;23;20045;-75
2023/11/26 08:17:55;;;;;;;10.27;4.63;;;;;;;2.11;100.00;98923.63;5052797;28;20096;-75
2023/11/26 08:20:21;;;;;;;8.75;3.72;;;;;;;2.24;100.00;98925.97;5039102;28;20020;-76
2023/11/26 08:22:47;;;;;;;8.77;4.43;;;;;;;2.36;100.00;98916.78;5048920;28;20217;-75
2023/11/26 08:25:17;;;;;;;8.63;4.32;;;;;;;2.60;100.00;98918.91;5035846;28;20047;-76
2023/11/26 08:27:45;;;;;;;7.95;4.95;;;;;;;2.66;100.00;98923.63;5062697;28;20322;-75
2023/11/26 08:30:30;;;;;;;9.27;4.43;;;;;;;2.84;100.00;98927.16;5058930;28;20035;-80
2023/11/26 08:33:00;;;;;;;8.80;4.45;;;;;;;2.73;100.00;98898.00;5068159;28;20025;-75
2023/11/26 08:35:29;;;;;;;8.35;4.18;;;;;;;2.78;100.00;98913.59;5059003;28;20021;-75
2023/11/26 08:37:58;;;;;;;;;;;;;;;2.80;100.00;98916.91;5061271;28;20025;-75
2023/11/26 08:40:25;;;;;;;;;;;;;;;2.58;100.00;98919.03;5056217;28;20190;-75
2023/11/26 08:42:52;;;;;;;11.95;4.95;;;;;;;2.70;100.00;98911.66;5071228;28;19915;-74
2023/11/26 08:45:17;;;;;;;12.25;4.93;;;;;;;2.85;100.00;98915.47;5058867;28;20059;-75
2023/11/26 08:47:44;;;;;;;10.88;5.05;;;;;;;2.93;100.00;98900.53;5064356;28;20029;-74
2023/11/26 08:50:10;;;;;;;9.95;4.18;;;;;;;2.98;100.00;98903.56;5048282;28;20017;-76
2023/11/26 08:52:36;;;;;;;9.23;4.32;;;;;;;3.04;100.00;98901.16;5071864;28;20033;-76
2023/11/26 08:55:01;;;;;;;8.75;4.20;;;;;;;3.14;100.00;98905.56;5079379;28;20009;-88
2023/11/26 08:57:27;;;;;;;11.98;5.10;;;;;;;3.17;100.00;98903.44;5070134;28;20101;-78
2023/11/26 08:59:53;;;;;;;11.95;6.18;;;;;;;3.17;100.00;98908.78;5070818;28;20088;-84
2023/11/26 09:02:18;;;;;;;6.90;3.80;;;;;;;3.15;100.00;98905.41;5079516;28;20080;-82
2023/11/26 09:04:43;;;;;;;7.82;4.20;;;;;;;3.12;100.00;98916.41;5072569;28;20429;-75
2023/11/26 09:07:08;;;;;;;9.38;3.90;;;;;;;3.12;100.00;98910.22;5072926;28;20037;-85
2023/11/26 09:09:34;;;;;;;6.82;3.35;;;;;;;3.21;100.00;98903.97;5065673;28;20249;-77
2023/11/26 09:11:59;;;;;;;7.13;4.05;;;;;;;3.24;100.00;98903.66;5046330;28;20088;-77
2023/11/26 09:14:25;;;;;;;6.85;4.10;;;;;;;3.37;100.00;98904.09;5057735;28;20074;-75
2023/11/26 09:16:50;;;;;;;10.20;5.57;;;;;;;3.37;100.00;98901.41;5046128;28;20326;-76
2023/11/26 09:19:16;;;;;;;10.63;5.70;;;;;;;3.57;100.00;98919.97;5063433;28;20102;-75
2023/11/26 09:21:48;;;;;;;13.23;5.65;;;;;;;3.59;100.00;98908.13;5060397;28;20091;-75
2023/11/26 09:24:14;;;;;;;13.30;5.07;;;;;;;3.70;100.00;98915.03;5065194;28;20213;-80
2023/11/26 09:26:39;;;;;;;8.30;4.88;;;;;;;3.89;100.00;98916.66;5060602;28;20052;-82
2023/11/26 09:29:05;;;;;;;11.77;5.45;;;;;;;4.08;100.00;98897.69;5049725;28;20096;-78
2023/11/26 09:31:32;;;;;;;10.02;4.70;;;;;;;4.15;100.00;98876.47;5058864;28;20086;-77
2023/11/26 09:33:57;;;;;;;13.13;4.65;;;;;;;4.47;100.00;98904.41;5062851;28;20024;-79
2023/11/26 09:36:23;;;;;;;12.05;3.95;;;;;;;4.53;100.00;98901.91;5043203;28;20017;-78
2023/11/26 09:38:48;;;;;;;11.57;4.45;;;;;;;4.61;100.00;98901.09;5055781;28;20029;-76
2023/11/26 09:41:20;;;;;;;12.43;4.32;;;;;;;4.53;100.00;98891.19;5067637;28;20017;-78
2023/11/26 09:43:46;;;;;;;8.57;3.72;;;;;;;4.52;100.00;98913.63;5061260;28;20104;-78
2023/11/26 09:46:11;;;;;;;6.45;3.92;;;;;;;4.60;100.00;98891.38;5063421;28;20040;-79
2023/11/26 09:48:37;;;;;;;9.77;4.03;;;;;;;4.65;100.00;98907.81;5057698;28;20021;-78
2023/11/26 09:51:06;;;;;;;6.63;3.70;;;;;;;4.59;100.00;98901.25;5061124;28;20025;-76
2023/11/26 09:53:32;;;;;;;9.68;4.35;;;;;;;4.59;100.00;98884.34;5058433;28;20381;-79
2023/11/26 09:55:57;;;;;;;9.38;4.47;;;;;;;4.78;100.00;98910.03;5040606;28;20033;-78
2023/11/26 09:58:23;;;;;;;8.02;4.65;;;;;;;4.91;100.00;98913.06;5051925;28;20147;-77
2023/11/26 10:00:48;;;;;;;9.52;3.70;;;;;;;4.82;100.00;98900.63;5054477;28;20034;-77
2023/11/26 10:03:13;;;;;;;15.65;7.10;;;;;;;4.64;100.00;98889.19;5048198;28;20029;-76
2023/11/26 10:05:39;;;;;;;11.95;5.53;;;;;;;4.44;100.00;98876.09;5047784;28;20036;-74
2023/11/26 10:08:05;;;;;;;9.02;4.57;;;;;;;4.36;100.00;98895.66;5058579;28;20025;-74
2023/11/26 10:10:31;;;;;;;11.63;3.70;;;;;;;4.32;100.00;98902.34;5042372;28;20329;-74
2023/11/26 10:13:04;;;;;;;10.13;3.78;;;;;;;4.23;100.00;98891.75;5048345;28;20025;-77
2023/11/26 10:15:33;;;;;;;6.63;4.00;;;;;;;4.41;100.00;98897.84;5058341;28;20325;-76
2023/11/26 10:18:07;;;;;;;9.40;4.28;;;;;;;4.37;100.00;98883.09;5062553;28;20273;-72
2023/11/26 10:20:34;;;;;;;7.93;4.28;;;;;;;4.57;100.00;98889.03;5063104;28;20025;-74
2023/11/26 10:22:59;;;;;;;7.68;4.28;;;;;;;4.77;100.00;98889.59;5042249;28;20514;-74
2023/11/26 10:25:25;;;;;;;6.20;3.53;;;;;;;4.98;100.00;98895.31;5044788;28;20023;-74
2023/11/26 10:27:51;;;;;;;9.15;3.88;;;;;;;5.08;100.00;98881.75;5060686;28;20028;-75
2023/11/26 10:30:28;;;;;;;7.60;3.10;;;;;;;5.46;100.00;98893.66;5057616;28;20032;-74
2023/11/26 10:33:02;;;;;;;8.13;3.65;;;;;;;5.67;100.00;98876.19;5060862;28;20018;-74
2023/11/26 10:35:53;;;;;;;6.43;3.00;;;;;;;5.99;100.00;98866.44;5047773;28;20028;-74
2023/11/26 10:38:19;;;;;;;6.00;2.90;;;;;;;6.73;100.00;98859.72;5048702;28;20021;-74
2023/11/26 10:40:45;;;;;;;9.20;3.88;;;;;;;7.29;100.00;98842.50;5059931;28;20021;-74
2023/11/26 10:43:11;;;;;;;8.13;3.40;;;;;;;7.91;100.00;98831.44;5066030;28;20036;-75
2023/11/26 10:45:38;;;;;;;9.05;3.30;;;;;;;9.15;100.00;98829.63;5074803;28;20326;-76
2023/11/26 10:48:14;;;;;;;9.27;2.83;;;;;;;9.60;100.00;98824.78;5061172;28;20021;-70
2023/11/26 10:50:48;;;;;;;12.25;3.55;;;;;;;8.61;100.00;98823.88;5052293;28;20024;-73
2023/11/26 10:53:22;;;;;;;14.20;3.50;;;;;;;7.64;100.00;98819.44;5062599;28;20025;-72
2023/11/26 10:55:55;;;;;;;9.50;3.80;;;;;;;7.08;100.00;98827.03;5045466;28;20100;-72
2023/11/26 10:58:28;;;;;;;9.65;4.07;;;;;;;6.76;100.00;98820.91;5071552;28;20089;-73
2023/11/26 11:00:57;;;;;;;9.68;3.70;;;;;;;7.07;100.00;98826.19;5075497;28;20021;-72
2023/11/26 11:03:25;;;;;;;4.90;3.10;;;;;;;6.91;100.00;98819.06;5049876;28;20017;-72
2023/11/26 11:05:51;;;;;;;10.02;2.95;;;;;;;6.74;100.00;98807.63;5062801;28;20263;-74
2023/11/26 11:08:17;;;;;;;5.25;2.90;;;;;;;6.46;100.00;98820.72;5053090;28;20028;-80
2023/11/26 11:10:57;;;;;;;4.57;2.72;;;;;;;6.69;100.00;98817.25;5064349;28;20056;-72
2023/11/26 11:13:23;;;;;;;11.68;4.22;;;;;;;6.47;100.00;98810.78;5069943;28;20096;-72
2023/11/26 11:15:49;;;;;;;8.48;3.42;;;;;;;6.64;100.00;98804.31;5058787;28;20033;-71
2023/11/26 11:18:35;;;;;;;8.65;2.75;;;;;;;7.03;100.00;98814.13;5064812;28;20025;-72
2023/11/26 11:21:16;;;;;;;10.85;3.28;;;;;;;6.93;100.00;98821.59;5059963;28;20496;-71
2023/11/26 11:23:45;;;;;;;5.55;2.65;;;;;;;7.16;100.00;98811.66;5055409;28;20031;-73
2023/11/26 11:26:12;;;;;;;6.82;3.08;;;;;;;6.98;100.00;98809.28;5057133;28;20013;-72
2023/11/26 11:28:47;;;;;;;5.18;2.70;;;;;;;6.82;100.00;98797.81;5044143;28;20055;-73